Time;durP1;ratioP1;P1;durP2;ratioP2;P2;SDS_P1;SDS_P2;PMS_P1;PMS_P2;Temp;Humidity;BMP_temperature;BMP_pressure;BME280_temperature;BME280_humidity;BME280_pressure;Samples;Min_cycle;Max_cycle;Signal;HPM_P1;HPM_P2
2024/01/28 00:04:39;;;;;;;38.50;9.00;;;;;;;0.87;100.00;100747.30;273942;1266;22392;-89
2024/01/28 00:10:41;;;;;;;31.50;9.50;;;;;;;0.82;100.00;100749.73;273464;1266;22722;-89
2024/01/28 00:16:47;;;;;;;30.80;10.60;;;;;;;0.77;100.00;100751.98;272947;1267;22182;-91
2024/01/28 00:22:49;;;;;;;38.00;12.20;;;;;;;0.71;100.00;100752.68;273360;1267;24931;-89
2024/01/28 00:28:51;;;;;;;35.10;10.80;;;;;;;0.65;100.00;100754.41;273718;1266;22857;-89
2024/01/28 00:34:53;;;;;;;35.40;10.00;;;;;;;0.55;100.00;100748.89;271487;1266;22592;-88
2024/01/28 00:40:55;;;;;;;28.80;10.80;;;;;;;0.48;100.00;100750.70;271188;1264;23333;-88
2024/01/28 00:46:57;;;;;;;31.40;10.80;;;;;;;0.44;100.00;100759.42;271558;1266;22444;-88
2024/01/28 00:52:59;;;;;;;35.60;11.00;;;;;;;0.38;100.00;100769.22;274133;1267;22879;-90
2024/01/28 00:59:02;;;;;;;36.60;10.60;;;;;;;0.31;100.00;100774.91;273881;1266;23078;-89
2024/01/28 01:05:04;;;;;;;34.30;12.20;;;;;;;0.24;100.00;100774.40;273678;1256;22243;-89
2024/01/28 01:11:07;;;;;;;33.80;10.20;;;;;;;0.21;100.00;100775.79;273348;1256;22632;-90
2024/01/28 01:17:09;;;;;;;40.30;11.50;;;;;;;0.15;100.00;100773.77;273508;1268;22290;-90
2024/01/28 01:23:11;;;;;;;35.90;13.10;;;;;;;0.08;100.00;100770.41;273966;1267;22413;-89
2024/01/28 01:29:13;;;;;;;37.50;13.00;;;;;;;-0.01;100.00;100760.89;273975;1266;22230;-90
2024/01/28 01:35:16;;;;;;;51.30;17.30;;;;;;;-0.12;100.00;100760.10;272326;1266;26214;-90
2024/01/28 01:41:17;;;;;;;38.30;13.50;;;;;;;-0.16;100.00;100767.61;271357;1266;23186;-90
2024/01/28 01:47:20;;;;;;;37.50;14.90;;;;;;;-0.22;100.00;100766.06;274011;1267;23023;-90
2024/01/28 01:53:22;;;;;;;36.70;13.60;;;;;;;-0.26;100.00;100771.70;273331;1266;22242;-90
2024/01/28 01:59:24;;;;;;;45.30;16.80;;;;;;;-0.20;100.00;100782.39;273911;1266;22390;-89
2024/01/28 02:05:26;;;;;;;41.90;17.70;;;;;;;-0.05;100.00;100780.20;272865;1266;22579;-90
2024/01/28 02:11:28;;;;;;;52.80;21.50;;;;;;;0.13;100.00;100782.05;271554;1266;24203;-90
2024/01/28 02:17:30;;;;;;;52.70;21.90;;;;;;;0.29;100.00;100774.30;270758;1266;22537;-89
2024/01/28 02:23:33;;;;;;;57.60;21.70;;;;;;;0.47;100.00;100777.64;273026;1266;22365;-89
2024/01/28 02:29:35;;;;;;;60.90;23.20;;;;;;;0.59;100.00;100779.46;273877;1267;22239;-89
2024/01/28 02:36:22;;;;;;;64.50;22.00;;;;;;;0.70;100.00;100782.43;273520;1249;22195;-89
2024/01/28 02:51:13;;;;;;;60.20;22.00;;;;;;;0.87;100.00;100786.35;272117;1267;22186;-88
2024/01/28 02:58:08;;;;;;;57.80;22.40;;;;;;;0.96;100.00;100788.14;274209;1272;22171;-88
2024/01/28 03:05:39;;;;;;;53.20;20.50;;;;;;;1.04;100.00;100798.02;274142;1267;22256;-89
2024/01/28 03:11:42;;;;;;;63.70;24.40;;;;;;;1.10;100.00;100799.41;274210;1270;22206;-89
2024/01/28 03:18:29;;;;;;;53.40;20.10;;;;;;;1.18;100.00;100804.77;272405;1266;22564;-89
2024/01/28 03:26:20;;;;;;;49.80;19.10;;;;;;;1.24;100.00;100817.77;272341;1259;23024;-88
2024/01/28 03:33:20;;;;;;;42.60;19.00;;;;;;;1.29;100.00;100820.25;273241;1272;22685;-89
2024/01/28 03:40:26;;;;;;;59.20;22.50;;;;;;;1.34;100.00;100817.92;273336;1272;22464;-88
2024/01/28 03:54:56;;;;;;;57.00;19.90;;;;;;;1.40;100.00;100827.67;273077;1271;22333;-88
2024/01/28 04:02:22;;;;;;;47.80;20.60;;;;;;;1.42;100.00;100830.07;273872;1272;22431;-88
2024/01/28 04:09:28;;;;;;;44.80;20.00;;;;;;;1.47;100.00;100836.00;272176;1266;22598;-89
2024/01/28 04:16:01;;;;;;;43.30;19.40;;;;;;;1.52;100.00;100835.90;270713;1266;22559;-87
2024/01/28 04:22:49;;;;;;;52.50;21.00;;;;;;;1.56;100.00;100844.35;273804;1275;22296;-88
2024/01/28 04:28:55;;;;;;;45.20;18.90;;;;;;;1.59;100.00;100842.89;273208;1274;22449;-88
2024/01/28 04:35:53;;;;;;;43.50;19.80;;;;;;;1.62;100.00;100840.63;272212;1266;23392;-88
2024/01/28 04:42:03;;;;;;;37.60;17.80;;;;;;;1.64;100.00;100847.75;273762;1270;22202;-88
2024/01/28 04:48:07;;;;;;;39.90;19.30;;;;;;;1.68;100.00;100844.94;272928;1266;22215;-89
2024/01/28 04:54:10;;;;;;;37.90;20.60;;;;;;;1.71;100.00;100853.69;274043;1269;23343;-88
2024/01/28 05:00:14;;;;;;;40.30;21.10;;;;;;;1.75;100.00;100859.35;274244;1274;22308;-89
2024/01/28 05:06:18;;;;;;;;;;;;;;;1.77;100.00;100858.48;273892;1274;22389;-88
2024/01/28 05:12:55;;;;;;;40.40;20.50;;;;;;;1.81;100.00;100867.88;274136;1269;23397;-88
2024/01/28 05:19:19;;;;;;;43.10;20.30;;;;;;;1.86;100.00;100877.98;274135;1274;23239;-88
2024/01/28 05:25:52;;;;;;;46.00;19.80;;;;;;;1.88;100.00;100886.02;274136;1269;22254;-90
2024/01/28 05:32:19;;;;;;;40.10;19.90;;;;;;;1.86;100.00;100892.23;266470;1263;10140803;-87
2024/01/28 05:39:07;;;;;;;53.30;22.40;;;;;;;1.89;100.00;100898.38;274083;1267;22931;-88
2024/01/28 05:53:47;;;;;;;77.70;30.80;;;;;;;1.92;100.00;100933.48;274038;1275;22203;-89
2024/01/28 06:00:39;;;;;;;73.10;31.50;;;;;;;1.95;100.00;100933.98;274080;1275;22229;-89
2024/01/28 06:07:41;;;;;;;66.80;30.20;;;;;;;1.99;100.00;100933.27;272575;1267;22553;-87
2024/01/28 06:14:24;;;;;;;73.90;31.80;;;;;;;2.02;100.00;100928.61;271654;1267;22606;-88
2024/01/28 06:20:55;;;;;;;60.30;29.60;;;;;;;2.01;100.00;100932.56;272417;1269;22973;-89
2024/01/28 06:27:19;;;;;;;68.20;30.10;;;;;;;1.98;100.00;100936.78;274008;1272;22362;-88
2024/01/28 06:33:21;;;;;;;63.00;28.20;;;;;;;1.97;100.00;100936.67;274060;1273;22372;-89
2024/01/28 06:47:52;;;;;;;60.30;28.40;;;;;;;1.97;100.00;100943.38;274134;1267;22563;-87
2024/01/28 06:55:23;;;;;;;62.30;28.70;;;;;;;2.00;100.00;100955.47;270974;1267;22444;-88
2024/01/28 07:02:15;;;;;;;58.20;25.50;;;;;;;2.06;100.00;100951.03;270100;1263;22586;-87
2024/01/28 07:09:03;;;;;;;67.90;29.40;;;;;;;2.10;100.00;100944.27;272466;1281;22446;-87
2024/01/28 07:15:45;;;;;;;;;;;;;;;2.18;100.00;100957.44;272949;1267;22958;-88
2024/01/28 07:22:13;;;;;;;64.60;29.10;;;;;;;2.26;100.00;100959.83;273988;1270;23094;-88
2024/01/28 07:28:44;;;;;;;69.80;31.80;;;;;;;2.34;100.00;100967.48;274067;1266;22375;-87
2024/01/28 07:35:26;;;;;;;67.00;32.80;;;;;;;2.43;100.00;100972.54;274007;1273;22215;-88
2024/01/28 07:42:30;;;;;;;73.70;31.50;;;;;;;2.49;100.00;100981.51;274276;1273;22339;-88
2024/01/28 07:48:45;;;;;;;60.70;27.60;;;;;;;2.55;100.00;100982.08;274019;1274;24132;-88
2024/01/28 07:55:13;;;;;;;68.20;28.10;;;;;;;2.59;100.00;100985.91;274083;1273;22237;-88
2024/01/28 08:01:40;;;;;;;61.90;28.00;;;;;;;2.62;100.00;100986.92;274226;1273;22177;-88
2024/01/28 08:08:15;;;;;;;;;;;;;;;2.61;100.00;100991.32;272992;1270;22611;-89
2024/01/28 08:16:05;;;;;;;71.70;33.70;;;;;;;2.64;100.00;100996.33;274153;1275;22192;-89
2024/01/28 08:22:47;;;;;;;73.20;36.50;;;;;;;2.70;100.00;100999.23;272776;1281;23082;-89
2024/01/28 08:29:50;;;;;;;73.90;32.30;;;;;;;2.82;100.00;100997.96;272393;1277;22994;-88
2024/01/28 08:44:22;;;;;;;55.30;28.80;;;;;;;2.92;100.00;101008.30;269369;1278;22582;-89
2024/01/28 08:51:06;;;;;;;75.80;32.30;;;;;;;2.92;100.00;101011.08;272862;1266;22530;-89
2024/01/28 08:57:53;;;;;;;66.00;33.80;;;;;;;2.96;100.00;101018.42;273050;1271;23112;-88
2024/01/28 09:05:26;;;;;;;69.30;29.60;;;;;;;2.97;100.00;101024.58;274090;1265;22280;-89
2024/01/28 09:12:50;;;;;;;63.40;30.40;;;;;;;2.96;100.00;101021.72;272404;1273;22512;-88
2024/01/28 09:19:42;;;;;;;75.60;35.70;;;;;;;3.00;100.00;101031.16;273042;1280;22356;-88
2024/01/28 09:26:49;;;;;;;72.00;33.10;;;;;;;3.04;100.00;101037.21;273459;1269;22193;-89
2024/01/28 09:33:11;;;;;;;74.80;36.00;;;;;;;3.08;100.00;101046.09;274110;1274;22190;-89
2024/01/28 09:39:57;;;;;;;63.90;32.70;;;;;;;3.11;100.00;101042.23;274003;1273;22371;-88
2024/01/28 09:47:13;;;;;;;72.90;32.50;;;;;;;3.10;100.00;101041.70;274113;1274;22245;-88
2024/01/28 09:53:35;;;;;;;65.70;31.40;;;;;;;3.14;100.00;101046.33;274094;1272;22493;-90
2024/01/28 09:59:57;;;;;;;66.30;30.80;;;;;;;3.15;100.00;101044.16;274065;1275;22222;-88
2024/01/28 10:06:35;;;;;;;64.20;31.80;;;;;;;3.16;100.00;101049.08;274069;1273;22250;-89
2024/01/28 10:12:49;;;;;;;59.20;27.60;;;;;;;3.18;100.00;101053.02;273856;1266;22186;-88
2024/01/28 10:18:58;;;;;;;65.70;32.80;;;;;;;3.19;100.00;101055.23;274043;1269;22320;-89
2024/01/28 10:25:44;;;;;;;71.70;33.00;;;;;;;3.23;100.00;101056.90;273957;1270;22192;-89
2024/01/28 10:32:32;;;;;;;75.60;35.90;;;;;;;3.26;100.00;101052.56;274124;1274;22248;-89
2024/01/28 10:39:59;;;;;;;74.80;34.20;;;;;;;3.31;100.00;101051.36;274111;1273;22365;-88
2024/01/28 10:47:36;;;;;;;66.30;31.80;;;;;;;3.32;100.00;101040.35;274162;1274;22204;-89
2024/01/28 11:09:56;;;;;;;66.20;33.60;;;;;;;3.51;100.00;101034.52;270967;1272;23249;-89
2024/01/28 11:16:23;;;;;;;74.10;37.30;;;;;;;3.56;100.00;101040.27;272779;1275;23540;-88
2024/01/28 11:23:11;;;;;;;69.70;33.30;;;;;;;3.59;100.00;101039.29;273281;1270;22834;-89
2024/01/28 11:38:14;;;;;;;60.70;32.00;;;;;;;3.84;100.00;101050.57;273916;1274;22997;-89
2024/01/28 11:44:58;;;;;;;62.00;32.50;;;;;;;4.00;100.00;101052.69;273078;1259;23362;-89
2024/01/28 11:51:01;;;;;;;67.70;33.30;;;;;;;4.13;100.00;101048.58;272306;1266;23613;-89
2024/01/28 11:57:05;;;;;;;71.70;32.60;;;;;;;4.22;100.00;101050.18;271383;1266;22976;-89
2024/01/28 12:03:08;;;;;;;69.30;34.20;;;;;;;4.19;100.00;101057.73;272500;1265;22447;-89
2024/01/28 12:09:10;;;;;;;68.10;34.40;;;;;;;4.21;100.00;101052.41;272911;1266;23665;-89
2024/01/28 12:15:14;;;;;;;69.20;33.60;;;;;;;4.27;100.00;101059.31;271340;1266;22569;-91
2024/01/28 12:21:18;;;;;;;60.50;34.30;;;;;;;4.28;100.00;101057.08;272510;1266;22426;-89
2024/01/28 12:27:20;;;;;;;60.50;32.50;;;;;;;4.30;100.00;101059.17;273311;1266;22251;-89
2024/01/28 12:33:25;;;;;;;64.10;32.40;;;;;;;4.33;100.00;101058.77;273321;1266;22426;-89
2024/01/28 12:39:28;;;;;;;65.30;34.40;;;;;;;4.31;100.00;101061.02;273180;1266;22425;-90
2024/01/28 12:45:34;;;;;;;68.70;32.60;;;;;;;4.29;100.00;101061.41;272915;1266;22474;-87
2024/01/28 12:51:37;;;;;;;71.30;33.70;;;;;;;4.21;100.00;101059.90;273626;1266;22425;-89
2024/01/28 12:57:39;;;;;;;64.80;31.20;;;;;;;4.16;100.00;101053.32;272246;1266;23470;-89
2024/01/28 13:03:41;;;;;;;63.50;31.50;;;;;;;4.12;100.00;101048.48;272647;1266;22613;-89
2024/01/28 13:09:45;;;;;;;59.90;31.30;;;;;;;4.12;100.00;101046.30;273409;1265;25896;-88
2024/01/28 13:16:02;;;;;;;65.20;30.50;;;;;;;4.10;100.00;101052.94;272211;1263;22221;-87
2024/01/28 13:22:25;;;;;;;65.80;31.20;;;;;;;4.01;100.00;101058.04;272931;1266;24206;-89
2024/01/28 13:28:38;;;;;;;67.20;33.50;;;;;;;3.99;100.00;101061.84;272404;1266;22711;-88
2024/01/28 13:35:29;;;;;;;64.50;31.20;;;;;;;4.00;100.00;101059.52;273411;1266;23188;-88
2024/01/28 13:42:17;;;;;;;66.90;32.00;;;;;;;4.01;100.00;101063.02;273661;1266;23373;-88
2024/01/28 13:48:56;;;;;;;56.90;28.20;;;;;;;3.99;100.00;101065.05;273086;1265;23246;-89
2024/01/28 13:55:16;;;;;;;70.50;33.90;;;;;;;3.91;100.00;101072.35;272079;1266;22600;-89
2024/01/28 14:02:08;;;;;;;75.80;36.50;;;;;;;3.81;100.00;101075.78;272349;1266;22553;-88
2024/01/28 14:09:04;;;;;;;64.70;34.00;;;;;;;3.81;100.00;101077.62;273443;1266;22483;-88
2024/01/28 14:15:37;;;;;;;61.30;32.60;;;;;;;3.79;100.00;101077.75;273017;1266;22553;-88
2024/01/28 14:22:32;;;;;;;77.80;37.80;;;;;;;3.78;100.00;101082.63;272978;1266;22321;-87
2024/01/28 14:29:37;;;;;;;77.90;35.40;;;;;;;3.77;100.00;101084.91;271698;1266;23371;-89
2024/01/28 14:35:53;;;;;;;73.40;37.00;;;;;;;3.76;100.00;101085.73;272239;1266;23738;-88
2024/01/28 14:42:08;;;;;;;;;;;;;;;;;;;;;
2024/01/28 14:48:29;;;;;;;67.40;34.30;;;;;;;3.70;100.00;101087.66;272501;1266;23871;-88
2024/01/28 14:54:33;;;;;;;68.60;35.70;;;;;;;3.66;100.00;101086.48;272511;1266;24351;-89
2024/01/28 15:00:43;;;;;;;68.60;34.50;;;;;;;3.62;100.00;101088.08;273878;1257;22322;-89
2024/01/28 15:07:03;;;;;;;;;;;;;;;;;;;;;
2024/01/28 15:13:25;;;;;;;58.60;32.30;;;;;;;3.51;100.00;101087.59;272588;1266;22315;-87
2024/01/28 15:20:08;;;;;;;;;;;;;;;;;;;;;
2024/01/28 15:26:35;;;;;;;69.70;36.40;;;;;;;3.46;100.00;101083.17;273186;1266;22201;-88
2024/01/28 15:32:38;;;;;;;76.10;40.10;;;;;;;3.47;100.00;101081.92;273095;1265;23722;-88
2024/01/28 15:39:41;;;;;;;67.20;33.30;;;;;;;3.44;100.00;101084.42;272796;1266;22307;-88
2024/01/28 15:46:41;;;;;;;81.30;37.10;;;;;;;3.38;100.00;101087.70;272557;1266;22356;-88
2024/01/28 15:53:43;;;;;;;86.90;49.00;;;;;;;3.32;100.00;101091.73;272500;1269;22546;-90
2024/01/28 15:59:57;;;;;;;71.50;38.30;;;;;;;3.24;100.00;101089.65;271387;1267;23098;-89
2024/01/28 16:06:00;;;;;;;97.60;43.90;;;;;;;3.19;100.00;101092.36;272539;1267;22198;-87
2024/01/28 16:12:02;;;;;;;80.40;38.10;;;;;;;3.16;100.00;101095.03;272750;1269;23731;-89
2024/01/28 16:18:07;;;;;;;76.40;38.50;;;;;;;3.14;100.00;101086.66;271585;1269;23673;-88
2024/01/28 16:24:14;;;;;;;69.70;35.90;;;;;;;3.14;100.00;101093.96;270581;1269;23492;-89
2024/01/28 16:30:23;;;;;;;78.80;38.70;;;;;;;3.13;100.00;101096.29;269984;1269;22581;-89
2024/01/28 16:36:34;;;;;;;;;;;;;;;3.12;100.00;101099.60;270892;1269;22734;-88
2024/01/28 16:42:36;;;;;;;84.90;36.80;;;;;;;3.12;100.00;101106.85;270026;1269;24040;-89
2024/01/28 16:48:39;;;;;;;76.80;38.80;;;;;;;3.13;100.00;101104.79;270156;1269;22376;-88
2024/01/28 16:54:44;;;;;;;72.90;38.30;;;;;;;3.11;100.00;101095.27;272473;1269;22368;-88
2024/01/28 17:00:47;;;;;;;67.50;31.70;;;;;;;3.11;100.00;101089.53;272959;1269;22254;-89
2024/01/28 17:06:56;;;;;;;79.20;40.90;;;;;;;3.10;100.00;101091.64;272939;1263;22637;-89
2024/01/28 17:13:00;;;;;;;78.10;40.70;;;;;;;3.08;100.00;101097.33;273190;1269;22460;-89
2024/01/28 17:19:02;;;;;;;84.70;40.10;;;;;;;3.00;100.00;101099.09;270852;1269;24764;-88
2024/01/28 17:25:04;;;;;;;85.70;42.60;;;;;;;2.93;100.00;101102.73;271227;1267;22538;-89
2024/01/28 17:31:06;;;;;;;68.20;35.30;;;;;;;2.85;100.00;101102.95;272583;1266;289709;-89
2024/01/28 17:37:08;;;;;;;73.90;35.70;;;;;;;2.67;100.00;101097.58;273429;1266;23563;-89
2024/01/28 17:43:19;;;;;;;79.70;39.70;;;;;;;2.48;100.00;101104.89;273897;1266;22379;-89
2024/01/28 17:49:23;;;;;;;87.30;42.30;;;;;;;2.35;100.00;101108.13;273395;1266;22191;-90
2024/01/28 17:55:30;;;;;;;98.40;47.60;;;;;;;2.31;100.00;101113.52;273769;1265;23070;-89
2024/01/28 18:01:35;;;;;;;101.30;49.90;;;;;;;2.23;100.00;101112.77;273401;1266;22498;-89
2024/01/28 18:07:42;;;;;;;97.00;46.00;;;;;;;2.05;100.00;101115.81;273831;1263;23586;-89
2024/01/28 18:13:44;;;;;;;94.10;43.90;;;;;;;1.91;100.00;101113.53;271659;1266;22571;-89
2024/01/28 18:19:47;;;;;;;103.30;51.50;;;;;;;1.77;100.00;101106.79;265612;1266;10001451;-89
2024/01/28 18:25:49;;;;;;;96.60;48.40;;;;;;;1.64;100.00;101108.66;273010;1266;23321;-89
2024/01/28 18:31:52;;;;;;;98.20;47.70;;;;;;;1.47;100.00;101112.32;273636;1266;22426;-88
2024/01/28 18:37:54;;;;;;;103.30;49.60;;;;;;;1.32;100.00;101112.19;272547;1266;22640;-88
2024/01/28 18:43:59;;;;;;;108.80;48.60;;;;;;;1.15;100.00;101109.31;273325;1266;23640;-88
2024/01/28 18:50:04;;;;;;;103.20;52.60;;;;;;;1.01;100.00;101108.15;273588;1266;22521;-90
2024/01/28 18:56:10;;;;;;;101.50;51.20;;;;;;;0.85;100.00;101108.81;272879;1266;22402;-89
2024/01/28 19:02:13;;;;;;;105.50;56.00;;;;;;;0.73;100.00;101105.66;273212;1266;22825;-90
2024/01/28 19:08:15;;;;;;;139.00;70.00;;;;;;;0.59;100.00;101104.16;273742;1266;22464;-89
2024/01/28 19:14:17;;;;;;;124.20;62.00;;;;;;;0.48;100.00;101102.30;273635;1266;22489;-90
2024/01/28 19:20:20;;;;;;;135.60;66.90;;;;;;;0.35;100.00;101105.63;272444;1266;22685;-90
2024/01/28 19:26:26;;;;;;;100.00;51.30;;;;;;;0.20;100.00;101098.30;272819;1266;23370;-87
2024/01/28 19:32:37;;;;;;;102.20;52.80;;;;;;;0.05;100.00;101094.05;273100;1267;22398;-89
2024/01/28 19:38:42;;;;;;;92.20;47.30;;;;;;;-0.06;100.00;101096.17;273561;1266;22195;-88
2024/01/28 19:44:45;;;;;;;93.70;44.00;;;;;;;-0.15;100.00;101094.34;272985;1266;23742;-88
2024/01/28 19:50:51;;;;;;;91.10;45.70;;;;;;;-0.24;100.00;101093.69;271535;1266;23326;-89
2024/01/28 19:57:00;;;;;;;83.30;42.60;;;;;;;-0.33;100.00;101093.25;272527;1266;22554;-90
2024/01/28 20:03:03;;;;;;;85.70;43.50;;;;;;;-0.45;100.00;101098.23;271285;1266;25249;-89
2024/01/28 20:09:13;;;;;;;76.30;39.80;;;;;;;-0.52;100.00;101102.18;273249;1266;23555;-90
2024/01/28 20:15:22;;;;;;;89.50;46.40;;;;;;;-0.66;100.00;101103.09;271877;1266;22587;-89
2024/01/28 20:21:33;;;;;;;97.00;45.60;;;;;;;-0.76;100.00;101099.31;271435;1266;22692;-89
2024/01/28 20:27:49;;;;;;;94.50;46.30;;;;;;;-0.83;100.00;101098.02;272090;1266;22647;-90
2024/01/28 20:33:57;;;;;;;95.50;48.50;;;;;;;-0.90;100.00;101096.86;271311;1267;22572;-90
2024/01/28 20:40:02;;;;;;;99.40;49.50;;;;;;;-1.01;100.00;101093.81;272395;1265;22318;-91
2024/01/28 20:46:14;;;;;;;103.10;49.90;;;;;;;-1.09;100.00;101091.88;273602;1266;22456;-91
2024/01/28 20:52:16;;;;;;;106.40;48.40;;;;;;;-1.15;100.00;101092.92;273528;1267;22585;-90
2024/01/28 20:58:18;;;;;;;92.20;44.90;;;;;;;-1.20;100.00;101088.27;273330;1267;22575;-90
2024/01/28 21:04:20;;;;;;;97.00;46.90;;;;;;;-1.24;100.00;101090.52;273730;1266;22514;-90
2024/01/28 21:10:25;;;;;;;91.10;46.60;;;;;;;-1.25;100.00;101092.13;272479;1266;22557;-91
2024/01/28 21:16:28;;;;;;;90.50;43.80;;;;;;;-1.32;100.00;101089.45;271066;1266;22897;-91
2024/01/28 21:22:30;;;;;;;100.10;48.30;;;;;;;-1.40;100.00;101089.98;273056;1266;22893;-91
2024/01/28 21:28:32;;;;;;;115.60;51.70;;;;;;;-1.42;100.00;101078.98;272186;1266;22479;-92
2024/01/28 21:34:35;;;;;;;111.10;49.30;;;;;;;-1.49;100.00;101070.66;272030;1267;22563;-92
2024/01/28 21:40:37;;;;;;;131.90;61.40;;;;;;;-1.57;100.00;101066.23;271257;1267;23000;-91
2024/01/28 21:46:39;;;;;;;141.40;63.70;;;;;;;-1.46;100.00;101069.09;273647;1266;22658;-90
2024/01/28 21:52:41;;;;;;;154.50;66.90;;;;;;;-1.21;100.00;101067.30;273769;1266;22195;-91
2024/01/28 21:58:44;;;;;;;170.40;74.80;;;;;;;-0.94;100.00;101062.98;273882;1267;22481;-91
2024/01/28 22:04:47;;;;;;;156.70;69.90;;;;;;;-0.80;100.00;101067.20;273439;1266;22442;-92
2024/01/28 22:11:12;;;;;;;161.80;71.00;;;;;;;-0.75;100.00;101060.81;273825;1267;23585;-91
2024/01/28 22:17:25;;;;;;;144.30;65.20;;;;;;;-0.68;100.00;101071.64;273020;1266;23132;-92
2024/01/28 22:23:28;;;;;;;165.90;72.60;;;;;;;-0.63;100.00;101067.24;273840;1251;24514;-92
2024/01/28 22:29:32;;;;;;;165.80;67.60;;;;;;;-0.64;100.00;101073.42;273354;1266;22396;-91
2024/01/28 22:35:35;;;;;;;170.70;68.90;;;;;;;-0.61;100.00;101081.75;271779;1266;22435;-92
2024/01/28 22:41:45;;;;;;;157.30;68.80;;;;;;;-0.61;100.00;101076.98;270564;1266;23883;-92
2024/01/28 22:47:51;;;;;;;151.60;67.40;;;;;;;-0.79;100.00;101073.83;270189;1267;22595;-91
2024/01/28 22:53:56;;;;;;;158.60;68.50;;;;;;;-1.05;100.00;101074.45;270544;1266;23169;-92
2024/01/28 23:00:00;;;;;;;152.00;64.90;;;;;;;-1.26;100.00;101076.05;270950;1266;22662;-91
2024/01/28 23:06:14;;;;;;;121.60;55.30;;;;;;;-1.42;100.00;101078.99;272412;1266;23624;-92
2024/01/28 23:12:31;;;;;;;;;;;;;;;;;;;;;
2024/01/28 23:18:34;;;;;;;169.80;72.30;;;;;;;-1.61;100.00;101068.59;273848;1267;22462;-91
2024/01/28 23:24:37;;;;;;;149.10;61.70;;;;;;;-1.66;100.00;101069.00;273170;1266;23481;-91
2024/01/28 23:30:40;;;;;;;146.50;64.40;;;;;;;-1.72;100.00;101056.78;271676;1266;22532;-89
2024/01/28 23:36:42;;;;;;;139.80;61.60;;;;;;;-1.78;100.00;101049.91;272615;1266;23688;-90
2024/01/28 23:42:44;;;;;;;147.20;59.30;;;;;;;-1.78;100.00;101047.82;273290;1266;24867;-91
2024/01/28 23:48:50;;;;;;;137.80;57.50;;;;;;;-1.79;100.00;101044.21;273818;1266;22452;-90
2024/01/28 23:54:53;;;;;;;122.30;55.30;;;;;;;-1.84;100.00;101027.38;273908;1265;23284;-90
